sensor_id;sensor_type;location;lat;lon;timestamp;P1;durP1;ratioP1;P2;durP2;ratioP2
28245;SDS011;15510;52.512;13.300;2023-02-15T00:01:19;33.00;;;19.17;;
28245;SDS011;15510;52.512;13.300;2023-02-15T00:03:47;38.73;;;19.80;;
28245;SDS011;15510;52.512;13.300;2023-02-15T00:06:13;30.73;;;19.20;;
28245;SDS011;15510;52.512;13.300;2023-02-15T00:08:40;32.93;;;20.77;;
28245;SDS011;15510;52.512;13.300;2023-02-15T00:11:06;32.60;;;19.97;;
28245;SDS011;15510;52.512;13.300;2023-02-15T00:13:36;34.43;;;20.50;;
28245;SDS011;15510;52.512;13.300;2023-02-15T00:16:06;38.03;;;20.87;;
28245;SDS011;15510;52.512;13.300;2023-02-15T00:18:34;34.20;;;20.70;;
28245;SDS011;15510;52.512;13.300;2023-02-15T00:21:03;34.40;;;21.20;;
28245;SDS011;15510;52.512;13.300;2023-02-15T00:23:35;34.30;;;21.00;;
28245;SDS011;15510;52.512;13.300;2023-02-15T00:26:05;34.63;;;20.63;;
28245;SDS011;15510;52.512;13.300;2023-02-15T00:28:38;36.20;;;21.97;;
28245;SDS011;15510;52.512;13.300;2023-02-15T00:31:10;36.43;;;22.23;;
28245;SDS011;15510;52.512;13.300;2023-02-15T00:33:37;37.07;;;22.30;;
28245;SDS011;15510;52.512;13.300;2023-02-15T00:36:04;36.27;;;21.57;;
28245;SDS011;15510;52.512;13.300;2023-02-15T00:38:32;36.53;;;21.70;;
28245;SDS011;15510;52.512;13.300;2023-02-15T00:40:59;36.80;;;22.10;;
28245;SDS011;15510;52.512;13.300;2023-02-15T00:43:27;34.40;;;20.57;;
28245;SDS011;15510;52.512;13.300;2023-02-15T00:45:54;35.93;;;21.00;;
28245;SDS011;15510;52.512;13.300;2023-02-15T00:48:21;36.80;;;21.37;;
28245;SDS011;15510;52.512;13.300;2023-02-15T00:50:53;34.57;;;22.30;;
28245;SDS011;15510;52.512;13.300;2023-02-15T00:53:20;41.77;;;21.80;;
28245;SDS011;15510;52.512;13.300;2023-02-15T00:55:46;34.93;;;21.87;;
28245;SDS011;15510;52.512;13.300;2023-02-15T00:58:13;37.53;;;22.17;;
28245;SDS011;15510;52.512;13.300;2023-02-15T01:00:39;35.73;;;22.33;;
28245;SDS011;15510;52.512;13.300;2023-02-15T01:03:07;41.10;;;23.83;;
28245;SDS011;15510;52.512;13.300;2023-02-15T01:05:37;37.73;;;21.80;;
28245;SDS011;15510;52.512;13.300;2023-02-15T01:08:03;39.20;;;22.93;;
28245;SDS011;15510;52.512;13.300;2023-02-15T01:10:29;36.73;;;22.83;;
28245;SDS011;15510;52.512;13.300;2023-02-15T01:12:55;39.97;;;23.20;;
28245;SDS011;15510;52.512;13.300;2023-02-15T01:15:22;39.70;;;24.27;;
28245;SDS011;15510;52.512;13.300;2023-02-15T01:17:48;41.30;;;24.23;;
28245;SDS011;15510;52.512;13.300;2023-02-15T01:20:21;43.03;;;24.97;;
28245;SDS011;15510;52.512;13.300;2023-02-15T01:22:50;37.73;;;23.13;;
28245;SDS011;15510;52.512;13.300;2023-02-15T01:25:17;39.57;;;24.80;;
28245;SDS011;15510;52.512;13.300;2023-02-15T01:27:44;41.43;;;23.73;;
28245;SDS011;15510;52.512;13.300;2023-02-15T01:30:11;41.73;;;24.43;;
28245;SDS011;15510;52.512;13.300;2023-02-15T01:32:38;41.30;;;25.73;;
28245;SDS011;15510;52.512;13.300;2023-02-15T01:35:04;43.37;;;24.30;;
28245;SDS011;15510;52.512;13.300;2023-02-15T01:37:31;41.80;;;25.90;;
28245;SDS011;15510;52.512;13.300;2023-02-15T01:39:58;43.50;;;25.50;;
28245;SDS011;15510;52.512;13.300;2023-02-15T01:42:25;44.50;;;25.37;;
28245;SDS011;15510;52.512;13.300;2023-02-15T01:44:59;44.47;;;26.53;;
28245;SDS011;15510;52.512;13.300;2023-02-15T01:47:38;42.30;;;24.93;;
28245;SDS011;15510;52.512;13.300;2023-02-15T01:50:09;43.67;;;25.83;;
28245;SDS011;15510;52.512;13.300;2023-02-15T01:52:38;43.97;;;25.80;;
28245;SDS011;15510;52.512;13.300;2023-02-15T01:55:07;38.27;;;24.00;;
28245;SDS011;15510;52.512;13.300;2023-02-15T01:57:34;42.07;;;25.37;;
28245;SDS011;15510;52.512;13.300;2023-02-15T02:00:02;47.00;;;26.40;;
28245;SDS011;15510;52.512;13.300;2023-02-15T02:02:37;43.83;;;26.50;;
28245;SDS011;15510;52.512;13.300;2023-02-15T02:05:05;47.63;;;27.07;;
28245;SDS011;15510;52.512;13.300;2023-02-15T02:07:33;47.73;;;28.00;;
28245;SDS011;15510;52.512;13.300;2023-02-15T02:10:03;49.03;;;27.67;;
28245;SDS011;15510;52.512;13.300;2023-02-15T02:12:32;46.60;;;26.67;;
28245;SDS011;15510;52.512;13.300;2023-02-15T02:14:59;46.07;;;26.67;;
28245;SDS011;15510;52.512;13.300;2023-02-15T02:20:30;47.53;;;27.27;;
28245;SDS011;15510;52.512;13.300;2023-02-15T02:39:43;51.80;;;29.93;;
28245;SDS011;15510;52.512;13.300;2023-02-15T02:42:24;50.13;;;28.40;;
28245;SDS011;15510;52.512;13.300;2023-02-15T02:45:08;53.57;;;29.73;;
28245;SDS011;15510;52.512;13.300;2023-02-15T02:47:48;48.70;;;28.43;;
28245;SDS011;15510;52.512;13.300;2023-02-15T02:50:22;46.83;;;27.97;;
28245;SDS011;15510;52.512;13.300;2023-02-15T02:52:51;53.60;;;30.40;;
28245;SDS011;15510;52.512;13.300;2023-02-15T02:57:56;49.83;;;27.67;;
28245;SDS011;15510;52.512;13.300;2023-02-15T03:00:26;47.70;;;28.03;;
28245;SDS011;15510;52.512;13.300;2023-02-15T03:03:02;47.33;;;28.33;;
28245;SDS011;15510;52.512;13.300;2023-02-15T03:05:34;47.47;;;28.40;;
28245;SDS011;15510;52.512;13.300;2023-02-15T03:08:04;51.87;;;29.70;;
28245;SDS011;15510;52.512;13.300;2023-02-15T03:10:35;50.73;;;28.77;;
28245;SDS011;15510;52.512;13.300;2023-02-15T03:13:04;50.80;;;29.63;;
28245;SDS011;15510;52.512;13.300;2023-02-15T03:15:31;57.87;;;30.90;;
28245;SDS011;15510;52.512;13.300;2023-02-15T03:18:22;54.07;;;30.17;;
28245;SDS011;15510;52.512;13.300;2023-02-15T03:20:50;56.63;;;31.50;;
28245;SDS011;15510;52.512;13.300;2023-02-15T03:23:19;58.23;;;31.60;;
28245;SDS011;15510;52.512;13.300;2023-02-15T03:26:00;64.70;;;32.53;;
28245;SDS011;15510;52.512;13.300;2023-02-15T03:28:36;60.53;;;32.63;;
28245;SDS011;15510;52.512;13.300;2023-02-15T03:31:11;64.33;;;33.60;;
28245;SDS011;15510;52.512;13.300;2023-02-15T03:33:40;57.87;;;32.63;;
28245;SDS011;15510;52.512;13.300;2023-02-15T03:36:11;62.93;;;33.80;;
28245;SDS011;15510;52.512;13.300;2023-02-15T03:41:34;55.13;;;31.27;;
28245;SDS011;15510;52.512;13.300;2023-02-15T03:44:10;56.50;;;31.63;;
28245;SDS011;15510;52.512;13.300;2023-02-15T03:46:46;57.30;;;31.37;;
28245;SDS011;15510;52.512;13.300;2023-02-15T03:49:20;58.40;;;30.33;;
28245;SDS011;15510;52.512;13.300;2023-02-15T03:51:48;61.30;;;32.33;;
28245;SDS011;15510;52.512;13.300;2023-02-15T03:54:21;61.43;;;32.87;;
28245;SDS011;15510;52.512;13.300;2023-02-15T04:00:13;56.67;;;29.07;;
28245;SDS011;15510;52.512;13.300;2023-02-15T04:03:23;55.17;;;30.03;;
28245;SDS011;15510;52.512;13.300;2023-02-15T04:05:56;56.77;;;30.73;;
28245;SDS011;15510;52.512;13.300;2023-02-15T04:08:22;59.53;;;31.47;;
28245;SDS011;15510;52.512;13.300;2023-02-15T04:11:08;52.67;;;30.13;;
28245;SDS011;15510;52.512;13.300;2023-02-15T04:13:34;59.27;;;31.27;;
28245;SDS011;15510;52.512;13.300;2023-02-15T04:16:00;60.07;;;31.80;;
28245;SDS011;15510;52.512;13.300;2023-02-15T04:18:29;58.10;;;29.40;;
28245;SDS011;15510;52.512;13.300;2023-02-15T04:21:14;53.87;;;28.33;;
28245;SDS011;15510;52.512;13.300;2023-02-15T04:23:58;56.57;;;29.27;;
28245;SDS011;15510;52.512;13.300;2023-02-15T04:26:43;54.60;;;29.03;;
28245;SDS011;15510;52.512;13.300;2023-02-15T04:29:09;55.57;;;28.93;;
28245;SDS011;15510;52.512;13.300;2023-02-15T04:31:34;54.53;;;28.17;;
28245;SDS011;15510;52.512;13.300;2023-02-15T04:34:00;60.63;;;30.43;;
28245;SDS011;15510;52.512;13.300;2023-02-15T04:36:26;59.27;;;31.33;;
28245;SDS011;15510;52.512;13.300;2023-02-15T04:38:52;60.77;;;31.97;;
28245;SDS011;15510;52.512;13.300;2023-02-15T04:41:17;56.77;;;29.87;;
28245;SDS011;15510;52.512;13.300;2023-02-15T04:43:43;57.60;;;29.67;;
28245;SDS011;15510;52.512;13.300;2023-02-15T04:46:09;59.77;;;31.03;;
28245;SDS011;15510;52.512;13.300;2023-02-15T04:48:34;55.87;;;28.60;;
28245;SDS011;15510;52.512;13.300;2023-02-15T04:51:04;60.47;;;30.43;;
28245;SDS011;15510;52.512;13.300;2023-02-15T04:53:31;60.30;;;31.30;;
28245;SDS011;15510;52.512;13.300;2023-02-15T04:55:57;61.77;;;30.60;;
28245;SDS011;15510;52.512;13.300;2023-02-15T04:58:23;59.60;;;31.60;;
28245;SDS011;15510;52.512;13.300;2023-02-15T05:00:49;63.67;;;30.57;;
28245;SDS011;15510;52.512;13.300;2023-02-15T05:03:15;59.27;;;31.73;;
28245;SDS011;15510;52.512;13.300;2023-02-15T05:05:41;56.27;;;32.00;;
28245;SDS011;15510;52.512;13.300;2023-02-15T05:08:07;62.03;;;31.83;;
28245;SDS011;15510;52.512;13.300;2023-02-15T05:10:33;62.73;;;32.00;;
28245;SDS011;15510;52.512;13.300;2023-02-15T05:12:58;60.83;;;33.03;;
28245;SDS011;15510;52.512;13.300;2023-02-15T05:15:24;65.60;;;31.33;;
28245;SDS011;15510;52.512;13.300;2023-02-15T05:17:50;65.30;;;32.40;;
28245;SDS011;15510;52.512;13.300;2023-02-15T05:20:16;56.43;;;29.63;;
28245;SDS011;15510;52.512;13.300;2023-02-15T05:22:41;62.13;;;31.63;;
28245;SDS011;15510;52.512;13.300;2023-02-15T05:25:08;52.20;;;30.33;;
28245;SDS011;15510;52.512;13.300;2023-02-15T05:27:53;60.13;;;30.37;;
28245;SDS011;15510;52.512;13.300;2023-02-15T05:30:37;57.77;;;30.90;;
28245;SDS011;15510;52.512;13.300;2023-02-15T05:33:05;58.87;;;31.57;;
28245;SDS011;15510;52.512;13.300;2023-02-15T05:35:32;59.43;;;31.03;;
28245;SDS011;15510;52.512;13.300;2023-02-15T05:37:59;61.07;;;31.90;;
28245;SDS011;15510;52.512;13.300;2023-02-15T05:40:24;59.97;;;29.63;;
28245;SDS011;15510;52.512;13.300;2023-02-15T05:42:50;61.13;;;30.70;;
28245;SDS011;15510;52.512;13.300;2023-02-15T05:45:16;59.77;;;30.70;;
28245;SDS011;15510;52.512;13.300;2023-02-15T05:47:42;57.93;;;31.07;;
28245;SDS011;15510;52.512;13.300;2023-02-15T05:50:08;59.43;;;31.03;;
28245;SDS011;15510;52.512;13.300;2023-02-15T05:52:34;56.83;;;29.60;;
28245;SDS011;15510;52.512;13.300;2023-02-15T05:55:00;61.37;;;30.07;;
28245;SDS011;15510;52.512;13.300;2023-02-15T05:57:27;60.90;;;31.83;;
28245;SDS011;15510;52.512;13.300;2023-02-15T05:59:53;62.53;;;31.33;;
28245;SDS011;15510;52.512;13.300;2023-02-15T06:02:19;56.47;;;28.83;;
28245;SDS011;15510;52.512;13.300;2023-02-15T06:04:45;58.10;;;30.33;;
28245;SDS011;15510;52.512;13.300;2023-02-15T06:07:11;62.97;;;32.27;;
28245;SDS011;15510;52.512;13.300;2023-02-15T06:09:36;62.30;;;31.00;;
28245;SDS011;15510;52.512;13.300;2023-02-15T06:12:02;58.30;;;31.10;;
28245;SDS011;15510;52.512;13.300;2023-02-15T06:14:28;59.60;;;29.90;;
28245;SDS011;15510;52.512;13.300;2023-02-15T06:16:53;63.27;;;31.27;;
28245;SDS011;15510;52.512;13.300;2023-02-15T06:19:19;64.27;;;31.40;;
28245;SDS011;15510;52.512;13.300;2023-02-15T06:21:46;62.63;;;30.57;;
28245;SDS011;15510;52.512;13.300;2023-02-15T06:24:12;62.47;;;31.60;;
28245;SDS011;15510;52.512;13.300;2023-02-15T06:26:38;65.70;;;31.57;;
28245;SDS011;15510;52.512;13.300;2023-02-15T06:29:03;61.30;;;31.80;;
28245;SDS011;15510;52.512;13.300;2023-02-15T06:31:29;59.87;;;30.87;;
28245;SDS011;15510;52.512;13.300;2023-02-15T06:33:55;61.33;;;30.63;;
28245;SDS011;15510;52.512;13.300;2023-02-15T06:36:27;63.47;;;31.07;;
28245;SDS011;15510;52.512;13.300;2023-02-15T06:38:56;60.60;;;30.43;;
28245;SDS011;15510;52.512;13.300;2023-02-15T06:41:22;64.07;;;29.57;;
28245;SDS011;15510;52.512;13.300;2023-02-15T06:43:48;70.27;;;29.97;;
28245;SDS011;15510;52.512;13.300;2023-02-15T06:46:14;73.10;;;29.60;;
28245;SDS011;15510;52.512;13.300;2023-02-15T06:48:40;65.23;;;29.63;;
28245;SDS011;15510;52.512;13.300;2023-02-15T06:51:06;60.90;;;28.80;;
28245;SDS011;15510;52.512;13.300;2023-02-15T06:53:31;66.67;;;31.13;;
28245;SDS011;15510;52.512;13.300;2023-02-15T06:56:04;67.27;;;31.17;;
28245;SDS011;15510;52.512;13.300;2023-02-15T06:58:40;67.63;;;29.23;;
28245;SDS011;15510;52.512;13.300;2023-02-15T07:01:07;80.63;;;30.57;;
28245;SDS011;15510;52.512;13.300;2023-02-15T07:03:34;68.47;;;31.20;;
28245;SDS011;15510;52.512;13.300;2023-02-15T07:06:01;73.33;;;31.00;;
28245;SDS011;15510;52.512;13.300;2023-02-15T07:08:28;70.13;;;29.87;;
28245;SDS011;15510;52.512;13.300;2023-02-15T07:10:54;70.57;;;31.33;;
28245;SDS011;15510;52.512;13.300;2023-02-15T07:13:41;65.13;;;30.30;;
28245;SDS011;15510;52.512;13.300;2023-02-15T07:16:08;77.37;;;32.97;;
28245;SDS011;15510;52.512;13.300;2023-02-15T07:18:34;69.33;;;31.83;;
28245;SDS011;15510;52.512;13.300;2023-02-15T07:21:00;69.50;;;31.07;;
28245;SDS011;15510;52.512;13.300;2023-02-15T07:23:26;83.27;;;33.57;;
28245;SDS011;15510;52.512;13.300;2023-02-15T07:25:59;61.57;;;30.43;;
28245;SDS011;15510;52.512;13.300;2023-02-15T07:28:25;65.13;;;31.53;;
28245;SDS011;15510;52.512;13.300;2023-02-15T07:30:51;66.03;;;30.90;;
28245;SDS011;15510;52.512;13.300;2023-02-15T07:33:16;69.93;;;32.10;;
28245;SDS011;15510;52.512;13.300;2023-02-15T07:35:55;65.83;;;31.03;;
28245;SDS011;15510;52.512;13.300;2023-02-15T07:38:23;63.20;;;29.40;;
28245;SDS011;15510;52.512;13.300;2023-02-15T07:41:02;65.13;;;30.60;;
28245;SDS011;15510;52.512;13.300;2023-02-15T07:43:29;61.83;;;30.53;;
28245;SDS011;15510;52.512;13.300;2023-02-15T07:46:01;61.00;;;29.60;;
28245;SDS011;15510;52.512;13.300;2023-02-15T07:48:28;64.00;;;29.47;;
28245;SDS011;15510;52.512;13.300;2023-02-15T07:50:54;53.60;;;28.33;;
28245;SDS011;15510;52.512;13.300;2023-02-15T07:53:23;54.57;;;28.33;;
28245;SDS011;15510;52.512;13.300;2023-02-15T07:55:49;57.87;;;28.87;;
28245;SDS011;15510;52.512;13.300;2023-02-15T07:58:14;56.97;;;28.80;;
28245;SDS011;15510;52.512;13.300;2023-02-15T08:00:40;58.90;;;27.90;;
28245;SDS011;15510;52.512;13.300;2023-02-15T08:03:24;53.57;;;28.47;;
28245;SDS011;15510;52.512;13.300;2023-02-15T08:05:58;51.77;;;25.27;;
28245;SDS011;15510;52.512;13.300;2023-02-15T08:08:28;54.40;;;27.40;;
28245;SDS011;15510;52.512;13.300;2023-02-15T08:10:57;57.93;;;27.50;;
28245;SDS011;15510;52.512;13.300;2023-02-15T08:13:43;47.77;;;26.63;;
28245;SDS011;15510;52.512;13.300;2023-02-15T08:16:32;54.90;;;27.47;;
28245;SDS011;15510;52.512;13.300;2023-02-15T08:19:00;49.47;;;26.47;;
28245;SDS011;15510;52.512;13.300;2023-02-15T08:21:31;52.83;;;26.40;;
28245;SDS011;15510;52.512;13.300;2023-02-15T08:23:58;49.87;;;25.90;;
28245;SDS011;15510;52.512;13.300;2023-02-15T08:26:24;53.53;;;27.23;;
28245;SDS011;15510;52.512;13.300;2023-02-15T08:28:52;49.93;;;27.13;;
28245;SDS011;15510;52.512;13.300;2023-02-15T08:31:19;47.93;;;26.03;;
28245;SDS011;15510;52.512;13.300;2023-02-15T08:33:45;50.40;;;26.93;;
28245;SDS011;15510;52.512;13.300;2023-02-15T08:36:15;50.33;;;27.53;;
28245;SDS011;15510;52.512;13.300;2023-02-15T08:38:42;56.67;;;26.10;;
28245;SDS011;15510;52.512;13.300;2023-02-15T08:41:09;52.97;;;28.00;;
28245;SDS011;15510;52.512;13.300;2023-02-15T08:43:39;49.20;;;26.90;;
28245;SDS011;15510;52.512;13.300;2023-02-15T08:46:06;49.17;;;25.73;;
28245;SDS011;15510;52.512;13.300;2023-02-15T08:48:32;49.03;;;25.97;;
28245;SDS011;15510;52.512;13.300;2023-02-15T08:50:57;50.50;;;26.17;;
28245;SDS011;15510;52.512;13.300;2023-02-15T08:53:23;46.47;;;25.60;;
28245;SDS011;15510;52.512;13.300;2023-02-15T08:55:58;46.63;;;26.53;;
28245;SDS011;15510;52.512;13.300;2023-02-15T08:58:24;46.13;;;26.47;;
28245;SDS011;15510;52.512;13.300;2023-02-15T09:00:50;48.17;;;25.93;;
28245;SDS011;15510;52.512;13.300;2023-02-15T09:03:16;43.50;;;25.13;;
28245;SDS011;15510;52.512;13.300;2023-02-15T09:05:42;48.97;;;24.57;;
28245;SDS011;15510;52.512;13.300;2023-02-15T09:08:08;45.77;;;25.47;;
28245;SDS011;15510;52.512;13.300;2023-02-15T09:10:34;40.77;;;23.17;;
28245;SDS011;15510;52.512;13.300;2023-02-15T09:12:59;38.23;;;22.13;;
28245;SDS011;15510;52.512;13.300;2023-02-15T09:15:25;38.97;;;22.27;;
28245;SDS011;15510;52.512;13.300;2023-02-15T09:17:51;36.47;;;21.70;;
28245;SDS011;15510;52.512;13.300;2023-02-15T09:20:16;33.40;;;21.17;;
28245;SDS011;15510;52.512;13.300;2023-02-15T09:22:42;36.50;;;20.40;;
28245;SDS011;15510;52.512;13.300;2023-02-15T09:25:08;34.47;;;19.53;;
28245;SDS011;15510;52.512;13.300;2023-02-15T09:27:33;32.73;;;19.57;;
28245;SDS011;15510;52.512;13.300;2023-02-15T09:29:59;33.17;;;20.67;;
28245;SDS011;15510;52.512;13.300;2023-02-15T09:32:25;34.63;;;19.70;;
28245;SDS011;15510;52.512;13.300;2023-02-15T09:34:51;32.63;;;20.40;;
28245;SDS011;15510;52.512;13.300;2023-02-15T09:37:16;33.07;;;19.30;;
28245;SDS011;15510;52.512;13.300;2023-02-15T09:39:42;32.43;;;19.53;;
28245;SDS011;15510;52.512;13.300;2023-02-15T09:43:13;34.13;;;20.70;;
28245;SDS011;15510;52.512;13.300;2023-02-15T09:45:26;33.50;;;19.57;;
28245;SDS011;15510;52.512;13.300;2023-02-15T09:48:40;32.80;;;19.53;;
28245;SDS011;15510;52.512;13.300;2023-02-15T09:56:56;32.27;;;20.27;;
28245;SDS011;15510;52.512;13.300;2023-02-15T09:59:38;38.47;;;21.10;;
28245;SDS011;15510;52.512;13.300;2023-02-15T10:04:57;36.83;;;21.70;;
28245;SDS011;15510;52.512;13.300;2023-02-15T10:10:46;35.50;;;21.43;;
28245;SDS011;15510;52.512;13.300;2023-02-15T10:13:54;31.53;;;19.87;;
28245;SDS011;15510;52.512;13.300;2023-02-15T10:25:00;33.63;;;19.97;;
28245;SDS011;15510;52.512;13.300;2023-02-15T10:27:45;35.23;;;21.07;;
28245;SDS011;15510;52.512;13.300;2023-02-15T10:41:21;33.67;;;20.80;;
28245;SDS011;15510;52.512;13.300;2023-02-15T10:54:45;36.27;;;22.33;;
28245;SDS011;15510;52.512;13.300;2023-02-15T10:57:29;42.30;;;23.63;;
28245;SDS011;15510;52.512;13.300;2023-02-15T11:00:22;34.07;;;20.93;;
28245;SDS011;15510;52.512;13.300;2023-02-15T11:05:35;35.07;;;21.37;;
28245;SDS011;15510;52.512;13.300;2023-02-15T11:08:04;34.27;;;21.00;;
28245;SDS011;15510;52.512;13.300;2023-02-15T11:13:04;34.63;;;21.93;;
28245;SDS011;15510;52.512;13.300;2023-02-15T11:15:53;35.43;;;21.30;;
28245;SDS011;15510;52.512;13.300;2023-02-15T11:21:03;34.47;;;20.53;;
28245;SDS011;15510;52.512;13.300;2023-02-15T11:23:46;30.67;;;19.37;;
28245;SDS011;15510;52.512;13.300;2023-02-15T11:26:26;29.23;;;18.90;;
28245;SDS011;15510;52.512;13.300;2023-02-15T11:28:59;32.07;;;19.27;;
28245;SDS011;15510;52.512;13.300;2023-02-15T11:31:49;26.27;;;18.10;;
28245;SDS011;15510;52.512;13.300;2023-02-15T11:34:31;25.73;;;17.87;;
28245;SDS011;15510;52.512;13.300;2023-02-15T11:37:04;24.40;;;17.85;;
28245;SDS011;15510;52.512;13.300;2023-02-15T11:39:33;30.05;;;17.40;;
28245;SDS011;15510;52.512;13.300;2023-02-15T11:42:01;26.30;;;17.60;;
28245;SDS011;15510;52.512;13.300;2023-02-15T11:44:39;28.95;;;17.13;;
28245;SDS011;15510;52.512;13.300;2023-02-15T11:47:13;24.23;;;17.08;;
28245;SDS011;15510;52.512;13.300;2023-02-15T11:49:40;22.85;;;16.13;;
28245;SDS011;15510;52.512;13.300;2023-02-15T11:52:13;21.65;;;15.48;;
28245;SDS011;15510;52.512;13.300;2023-02-15T11:54:45;22.23;;;15.95;;
28245;SDS011;15510;52.512;13.300;2023-02-15T11:57:19;26.38;;;17.08;;
28245;SDS011;15510;52.512;13.300;2023-02-15T12:02:56;24.08;;;15.95;;
28245;SDS011;15510;52.512;13.300;2023-02-15T12:05:23;23.00;;;16.00;;
28245;SDS011;15510;52.512;13.300;2023-02-15T12:07:57;24.00;;;16.95;;
28245;SDS011;15510;52.512;13.300;2023-02-15T12:10:30;24.65;;;17.17;;
28245;SDS011;15510;52.512;13.300;2023-02-15T12:13:09;36.88;;;17.35;;
28245;SDS011;15510;52.512;13.300;2023-02-15T12:15:40;23.80;;;16.27;;
28245;SDS011;15510;52.512;13.300;2023-02-15T12:18:19;24.00;;;16.90;;
28245;SDS011;15510;52.512;13.300;2023-02-15T12:21:02;22.08;;;16.77;;
28245;SDS011;15510;52.512;13.300;2023-02-15T12:23:32;23.48;;;15.73;;
28245;SDS011;15510;52.512;13.300;2023-02-15T12:25:58;24.73;;;15.88;;
28245;SDS011;15510;52.512;13.300;2023-02-15T12:28:32;23.15;;;14.93;;
28245;SDS011;15510;52.512;13.300;2023-02-15T12:31:01;22.83;;;15.68;;
28245;SDS011;15510;52.512;13.300;2023-02-15T12:33:31;23.80;;;15.65;;
28245;SDS011;15510;52.512;13.300;2023-02-15T12:36:25;27.80;;;15.77;;
28245;SDS011;15510;52.512;13.300;2023-02-15T12:44:30;22.92;;;15.63;;
28245;SDS011;15510;52.512;13.300;2023-02-15T12:46:59;24.77;;;15.75;;
28245;SDS011;15510;52.512;13.300;2023-02-15T12:49:42;21.58;;;15.57;;
28245;SDS011;15510;52.512;13.300;2023-02-15T12:54:47;24.23;;;15.95;;
28245;SDS011;15510;52.512;13.300;2023-02-15T12:59:51;27.23;;;16.63;;
28245;SDS011;15510;52.512;13.300;2023-02-15T13:02:25;27.08;;;16.27;;
28245;SDS011;15510;52.512;13.300;2023-02-15T13:07:55;25.60;;;17.10;;
28245;SDS011;15510;52.512;13.300;2023-02-15T13:13:36;25.63;;;16.80;;
28245;SDS011;15510;52.512;13.300;2023-02-15T13:16:13;23.97;;;16.10;;
28245;SDS011;15510;52.512;13.300;2023-02-15T13:18:43;24.87;;;16.40;;
28245;SDS011;15510;52.512;13.300;2023-02-15T13:21:31;24.97;;;15.80;;
28245;SDS011;15510;52.512;13.300;2023-02-15T13:24:02;26.33;;;15.93;;
28245;SDS011;15510;52.512;13.300;2023-02-15T13:26:42;30.50;;;17.53;;
28245;SDS011;15510;52.512;13.300;2023-02-15T13:29:31;22.87;;;16.60;;
28245;SDS011;15510;52.512;13.300;2023-02-15T13:34:49;27.47;;;17.03;;
28245;SDS011;15510;52.512;13.300;2023-02-15T13:42:41;28.00;;;17.43;;
28245;SDS011;15510;52.512;13.300;2023-02-15T13:48:15;22.93;;;15.87;;
28245;SDS011;15510;52.512;13.300;2023-02-15T14:01:53;26.47;;;17.57;;
28245;SDS011;15510;52.512;13.300;2023-02-15T14:04:42;27.10;;;15.80;;
28245;SDS011;15510;52.512;13.300;2023-02-15T14:07:42;26.90;;;15.93;;
28245;SDS011;15510;52.512;13.300;2023-02-15T14:15:50;22.43;;;15.17;;
28245;SDS011;15510;52.512;13.300;2023-02-15T14:21:15;22.17;;;15.43;;
28245;SDS011;15510;52.512;13.300;2023-02-15T14:26:59;20.97;;;15.43;;
28245;SDS011;15510;52.512;13.300;2023-02-15T14:29:46;22.23;;;14.57;;
28245;SDS011;15510;52.512;13.300;2023-02-15T14:32:23;24.00;;;15.87;;
28245;SDS011;15510;52.512;13.300;2023-02-15T14:35:01;25.10;;;15.43;;
28245;SDS011;15510;52.512;13.300;2023-02-15T14:37:42;27.53;;;15.43;;
28245;SDS011;15510;52.512;13.300;2023-02-15T14:49:27;21.63;;;14.50;;
28245;SDS011;15510;52.512;13.300;2023-02-15T14:52:02;23.83;;;16.03;;
28245;SDS011;15510;52.512;13.300;2023-02-15T15:02:25;52.40;;;32.33;;
28245;SDS011;15510;52.512;13.300;2023-02-15T15:05:08;22.90;;;15.47;;
28245;SDS011;15510;52.512;13.300;2023-02-15T15:07:36;22.30;;;15.77;;
28245;SDS011;15510;52.512;13.300;2023-02-15T15:12:51;19.63;;;13.17;;
28245;SDS011;15510;52.512;13.300;2023-02-15T15:25:42;21.53;;;14.07;;
28245;SDS011;15510;52.512;13.300;2023-02-15T15:28:22;19.17;;;13.47;;
28245;SDS011;15510;52.512;13.300;2023-02-15T15:31:00;18.23;;;13.10;;
28245;SDS011;15510;52.512;13.300;2023-02-15T15:33:52;18.97;;;12.60;;
28245;SDS011;15510;52.512;13.300;2023-02-15T15:48:26;20.67;;;12.37;;
28245;SDS011;15510;52.512;13.300;2023-02-15T15:50:58;23.17;;;12.80;;
28245;SDS011;15510;52.512;13.300;2023-02-15T15:53:27;15.63;;;11.33;;
28245;SDS011;15510;52.512;13.300;2023-02-15T15:55:57;19.73;;;12.13;;
28245;SDS011;15510;52.512;13.300;2023-02-15T15:58:28;16.30;;;11.13;;
28245;SDS011;15510;52.512;13.300;2023-02-15T16:03:33;15.97;;;11.10;;
28245;SDS011;15510;52.512;13.300;2023-02-15T16:05:59;19.57;;;11.10;;
28245;SDS011;15510;52.512;13.300;2023-02-15T16:08:38;16.93;;;10.80;;
28245;SDS011;15510;52.512;13.300;2023-02-15T16:11:16;18.90;;;11.47;;
28245;SDS011;15510;52.512;13.300;2023-02-15T16:13:47;19.70;;;10.97;;
28245;SDS011;15510;52.512;13.300;2023-02-15T16:16:13;14.30;;;10.13;;
28245;SDS011;15510;52.512;13.300;2023-02-15T16:18:50;14.97;;;10.17;;
28245;SDS011;15510;52.512;13.300;2023-02-15T16:21:18;13.77;;;10.13;;
28245;SDS011;15510;52.512;13.300;2023-02-15T16:26:36;15.43;;;10.13;;
28245;SDS011;15510;52.512;13.300;2023-02-15T16:29:32;13.17;;;9.40;;
28245;SDS011;15510;52.512;13.300;2023-02-15T16:32:03;13.57;;;9.73;;
28245;SDS011;15510;52.512;13.300;2023-02-15T16:34:32;15.97;;;10.03;;
28245;SDS011;15510;52.512;13.300;2023-02-15T16:37:14;16.87;;;9.63;;
28245;SDS011;15510;52.512;13.300;2023-02-15T16:39:45;15.43;;;9.13;;
28245;SDS011;15510;52.512;13.300;2023-02-15T16:42:13;13.00;;;9.50;;
28245;SDS011;15510;52.512;13.300;2023-02-15T16:44:40;16.83;;;9.93;;
28245;SDS011;15510;52.512;13.300;2023-02-15T16:47:16;16.57;;;10.83;;
28245;SDS011;15510;52.512;13.300;2023-02-15T16:49:47;16.00;;;11.47;;
28245;SDS011;15510;52.512;13.300;2023-02-15T16:52:23;13.63;;;11.10;;
28245;SDS011;15510;52.512;13.300;2023-02-15T16:55:00;16.40;;;11.10;;
28245;SDS011;15510;52.512;13.300;2023-02-15T16:57:31;14.77;;;11.03;;
28245;SDS011;15510;52.512;13.300;2023-02-15T17:00:04;15.47;;;11.00;;
28245;SDS011;15510;52.512;13.300;2023-02-15T17:02:33;17.03;;;11.13;;
28245;SDS011;15510;52.512;13.300;2023-02-15T17:05:20;21.20;;;11.97;;
28245;SDS011;15510;52.512;13.300;2023-02-15T17:07:50;16.10;;;11.67;;
28245;SDS011;15510;52.512;13.300;2023-02-15T17:10:36;17.60;;;11.53;;
28245;SDS011;15510;52.512;13.300;2023-02-15T17:15:39;17.17;;;10.87;;
28245;SDS011;15510;52.512;13.300;2023-02-15T17:20:43;17.60;;;11.63;;
28245;SDS011;15510;52.512;13.300;2023-02-15T17:25:54;17.80;;;12.10;;
28245;SDS011;15510;52.512;13.300;2023-02-15T17:28:22;20.57;;;12.37;;
28245;SDS011;15510;52.512;13.300;2023-02-15T17:30:50;20.53;;;12.33;;
28245;SDS011;15510;52.512;13.300;2023-02-15T17:33:25;27.67;;;12.90;;
28245;SDS011;15510;52.512;13.300;2023-02-15T17:43:54;18.90;;;12.70;;
28245;SDS011;15510;52.512;13.300;2023-02-15T17:46:20;22.30;;;14.10;;
28245;SDS011;15510;52.512;13.300;2023-02-15T17:48:50;28.10;;;14.13;;